Etusivu
METAR-TAF:

METAR-TAF

Lentoasemat :

Olivia Regional Airport

Olivia, Minnesota, Yhdysvallat

Leveyspiiri: 44-46-43N, Pituuspiiri: 095-01-58W, korkeus merenpinnasta: 328 m

Tämänhetkinen sää

Tämä raportti tehtiin 13 minuuttia sitten, kello 08.56 UTC
Tuuli 9 kn luoteesta
Lämpötila -6°C
Kosteus 93%
Ilmanpaine 1020 hPa
Näkyvyys: 16.1 km
Pilvistä 2100 ft:n korkeudessa

METAR: KOVL 180856Z AUTO 31009KT 10SM OVC021 M06/M07 A3012 RMK AO2 AO2

Aika: 03:09 (09:09 UTC)


TAF: puuttuu

Säähavainnot ja -ennusteet yli 4000 lentoasemalta (METAR- ja TAF-raportit).

Käytössä olevat sääasemat on merkitty karttaan keltaisilla ja punaisilla pisteillä.

Aseta hiiri pisteen päälle nähdäksesi sääaseman nimen.

Klikkaa sitten nähdäksesi säähavainnot ja -ennusteet.

Kartan vaihtaminen: klikkaa mustalla rastilla varustettuja vihreitä pisteitä, niin voit zoomata sisään; viivalla varustettua vihreää pistettä, niin voit zoomata ulos tai vihreitä nuolia, niin pääset viereisille kartoille.


METAR-TAF: